Time;durP1;ratioP1;P1;durP2;ratioP2;P2;SDS_P1;SDS_P2;PMS_P1;PMS_P2;Temp;Humidity;BMP_temperature;BMP_pressure;BME280_temperature;BME280_humidity;BME280_pressure;Samples;Min_cycle;Max_cycle;Signal;HPM_P1;HPM_P2
2022/01/10 00:00:12;;;;;;;28.75;7.10;;;1.70;99.90;;;;;;4842707;29;20402;-92
2022/01/10 00:02:38;;;;;;;37.03;7.63;;;1.70;99.90;;;;;;4827519;29;20057;-93
2022/01/10 00:05:04;;;;;;;34.40;7.97;;;1.70;99.90;;;;;;4827587;29;20045;-93
2022/01/10 00:07:30;;;;;;;33.70;6.45;;;1.70;99.90;;;;;;4842019;29;20079;-94
2022/01/10 00:09:56;;;;;;;32.50;7.15;;;1.70;99.90;;;;;;4842816;29;20629;-94
2022/01/10 00:12:21;;;;;;;39.20;6.53;;;1.70;99.90;;;;;;4827566;29;20041;-94
2022/01/10 00:14:47;;;;;;;28.75;5.93;;;1.70;99.90;;;;;;4842259;29;20068;-95
2022/01/10 00:17:13;;;;;;;35.30;7.20;;;1.90;99.90;;;;;;4827736;29;20097;-95
2022/01/10 00:19:39;;;;;;;36.15;6.93;;;1.70;99.90;;;;;;4838991;29;20072;-94
2022/01/10 00:22:08;;;;;;;34.45;6.78;;;1.70;99.90;;;;;;4861267;29;20409;-93
2022/01/10 00:24:34;;;;;;;38.45;7.05;;;1.70;99.90;;;;;;4861095;29;20053;-94
2022/01/10 00:27:00;;;;;;;39.30;6.93;;;1.70;99.90;;;;;;4861277;29;20040;-94
2022/01/10 00:29:25;;;;;;;30.73;6.75;;;1.70;99.90;;;;;;4860332;29;20060;-94
2022/01/10 00:31:51;;;;;;;26.70;5.70;;;1.60;99.90;;;;;;4860691;29;20045;-94
2022/01/10 00:34:16;;;;;;;28.10;6.20;;;1.50;99.90;;;;;;4860791;29;20059;-95
2022/01/10 00:36:42;;;;;;;30.75;5.85;;;1.40;99.90;;;;;;4860664;29;20509;-92
2022/01/10 00:39:08;;;;;;;26.63;5.22;;;1.40;99.90;;;;;;4861170;29;20055;-93
2022/01/10 00:41:34;;;;;;;27.17;5.40;;;1.30;99.90;;;;;;4860745;29;20064;-94
2022/01/10 00:44:01;;;;;;;39.42;6.03;;;1.30;99.90;;;;;;4860493;29;20045;-95
2022/01/10 00:46:27;;;;;;;34.20;7.07;;;1.30;99.90;;;;;;4860736;29;20068;-95
2022/01/10 00:48:55;;;;;;;30.05;5.95;;;1.30;99.90;;;;;;4859604;29;20048;-94
2022/01/10 00:51:21;;;;;;;30.80;6.28;;;1.40;99.90;;;;;;4860989;29;20135;-95
2022/01/10 00:53:50;;;;;;;33.60;6.40;;;1.40;99.90;;;;;;4860124;29;20128;-94
2022/01/10 00:56:16;;;;;;;36.95;6.15;;;1.50;99.90;;;;;;4844895;29;20112;-94
2022/01/10 00:58:41;;;;;;;29.23;6.18;;;1.40;99.90;;;;;;4846060;29;20083;-94
2022/01/10 01:01:07;;;;;;;39.58;5.68;;;1.30;99.90;;;;;;4860464;29;20084;-95
2022/01/10 01:03:33;;;;;;;32.70;6.13;;;2.00;99.90;;;;;;4860434;29;20053;-96
2022/01/10 01:05:59;;;;;;;36.60;5.70;;;1.20;99.90;;;;;;4860126;29;20052;-94
2022/01/10 01:08:27;;;;;;;33.63;7.53;;;1.20;99.90;;;;;;4845643;29;20045;-95
2022/01/10 01:11:14;;;;;;;31.75;6.95;;;1.10;99.90;;;;;;4844422;29;20056;-94
2022/01/10 01:13:52;;;;;;;36.13;6.60;;;1.10;99.90;;;;;;4860343;29;20120;-93
2022/01/10 01:16:31;;;;;;;24.48;6.53;;;1.00;99.90;;;;;;4844894;29;20112;-94
2022/01/10 01:19:14;;;;;;;34.90;6.85;;;0.90;99.90;;;;;;4843092;29;20092;-93
2022/01/10 01:24:24;;;;;;;36.05;5.93;;;0.90;99.90;;;;;;4859965;29;19972;-94
2022/01/10 01:26:52;;;;;;;33.85;7.22;;;0.80;99.90;;;;;;4845025;29;20426;-94
2022/01/10 01:29:22;;;;;;;39.95;6.25;;;0.80;99.90;;;;;;4844384;29;20056;-95
2022/01/10 01:31:48;;;;;;;30.75;7.25;;;0.80;99.90;;;;;;4859599;29;20570;-94
2022/01/10 01:34:17;;;;;;;39.22;6.85;;;0.80;99.90;;;;;;4859862;29;20132;-95
2022/01/10 01:36:47;;;;;;;38.92;7.50;;;0.80;99.90;;;;;;4844637;29;20118;-95
2022/01/10 01:39:23;;;;;;;28.83;6.15;;;0.70;99.90;;;;;;4859452;29;20049;-94
2022/01/10 01:41:50;;;;;;;30.20;6.10;;;0.70;99.90;;;;;;4844623;29;20048;-96
2022/01/10 01:44:16;;;;;;;32.33;7.05;;;0.70;99.90;;;;;;4859520;29;20048;-95
2022/01/10 01:46:42;;;;;;;23.65;6.40;;;0.60;99.90;;;;;;4858884;29;20135;-95
2022/01/10 01:49:10;;;;;;;30.52;6.15;;;0.60;99.90;;;;;;4843786;29;20478;-95
2022/01/10 01:51:36;;;;;;;41.28;8.07;;;0.60;99.90;;;;;;4844721;29;20053;-95
2022/01/10 01:54:02;;;;;;;35.58;7.53;;;0.60;99.90;;;;;;4843547;29;20144;-95
2022/01/10 01:56:28;;;;;;;34.28;7.00;;;0.60;99.90;;;;;;4859892;29;20049;-96
2022/01/10 01:58:55;;;;;;;42.40;7.45;;;0.60;99.90;;;;;;4844185;29;20051;-95
2022/01/10 02:01:22;;;;;;;39.50;7.15;;;0.50;99.90;;;;;;4843202;29;20048;-95
2022/01/10 02:03:49;;;;;;;27.58;7.90;;;0.50;99.90;;;;;;4859401;29;20053;-95
2022/01/10 02:06:15;;;;;;;37.03;7.68;;;0.50;99.90;;;;;;4843324;29;20052;-96
2022/01/10 02:08:41;;;;;;;23.20;7.13;;;0.50;99.90;;;;;;4859822;29;20049;-96
2022/01/10 02:11:09;;;;;;;25.15;7.30;;;0.40;99.90;;;;;;4859755;29;20041;-96
2022/01/10 02:13:35;;;;;;;32.25;7.38;;;0.40;99.90;;;;;;4859097;29;20057;-95
2022/01/10 02:16:04;;;;;;;31.25;7.20;;;0.40;99.90;;;;;;4858941;29;20041;-95
2022/01/10 02:18:30;;;;;;;24.70;7.15;;;0.50;99.90;;;;;;4858984;29;20124;-95
2022/01/10 02:21:00;;;;;;;31.00;7.60;;;0.30;99.90;;;;;;4858825;29;20057;-95
2022/01/10 02:23:26;;;;;;;42.65;7.85;;;0.30;99.90;;;;;;4858973;29;20049;-94
2022/01/10 02:25:52;;;;;;;37.08;8.23;;;0.20;99.90;;;;;;4859269;29;20112;-93
2022/01/10 02:28:17;;;;;;;34.45;7.90;;;0.20;99.90;;;;;;4858748;29;20491;-92
2022/01/10 02:30:43;;;;;;;36.95;7.40;;;0.30;99.90;;;;;;4860821;29;20051;-92
2022/01/10 02:33:08;;;;;;;28.67;8.80;;;0.30;99.90;;;;;;4850172;29;20048;-93
2022/01/10 02:35:43;;;;;;;30.85;9.00;;;0.30;99.90;;;;;;4864496;29;20076;-92
2022/01/10 02:38:09;;;;;;;36.25;8.05;;;0.40;99.90;;;;;;4865693;29;20053;-93
2022/01/10 02:40:35;;;;;;;29.15;7.63;;;0.40;99.90;;;;;;4865307;29;20049;-93
2022/01/10 02:43:05;;;;;;;35.80;9.10;;;0.40;99.90;;;;;;4864981;29;20056;-92
2022/01/10 02:45:31;;;;;;;30.45;8.75;;;0.50;99.90;;;;;;4865413;29;20037;-92
2022/01/10 02:47:57;;;;;;;39.28;7.18;;;0.50;99.90;;;;;;4865466;29;20121;-92
2022/01/10 02:50:23;;;;;;;38.75;7.70;;;0.40;99.90;;;;;;4864374;29;20128;-92
2022/01/10 02:52:49;;;;;;;29.67;8.18;;;0.40;99.90;;;;;;4865795;29;20134;-92
2022/01/10 02:55:15;;;;;;;34.92;8.68;;;0.40;99.90;;;;;;4865713;29;20049;-93
2022/01/10 02:57:41;;;;;;;43.92;8.30;;;0.40;99.90;;;;;;4849790;29;20056;-92
2022/01/10 03:00:11;;;;;;;36.13;7.88;;;0.30;99.90;;;;;;4877976;29;20056;-91
2022/01/10 03:02:37;;;;;;;37.72;8.15;;;0.20;99.90;;;;;;4883205;29;20119;-91
2022/01/10 03:05:05;;;;;;;29.27;7.70;;;0.20;99.90;;;;;;4883960;29;20453;-91
2022/01/10 03:07:31;;;;;;;31.55;7.97;;;0.20;99.90;;;;;;4883763;29;20044;-91
2022/01/10 03:09:57;;;;;;;33.65;7.78;;;0.20;99.90;;;;;;4868156;29;20412;-90
2022/01/10 03:12:23;;;;;;;32.83;8.02;;;0.10;99.90;;;;;;4883289;29;20092;-90
2022/01/10 03:14:49;;;;;;;39.50;7.80;;;0.10;99.90;;;;;;4883821;29;20095;-91
2022/01/10 03:17:15;;;;;;;43.20;8.63;;;0.10;99.90;;;;;;4883363;29;20140;-91
2022/01/10 03:19:42;;;;;;;50.85;10.07;;;0.00;99.90;;;;;;4867689;29;20552;-92
2022/01/10 03:22:08;;;;;;;46.28;8.38;;;0.00;99.90;;;;;;4884331;29;20060;-92
2022/01/10 03:24:34;;;;;;;40.15;8.50;;;0.00;99.90;;;;;;4883056;29;20055;-91
2022/01/10 03:27:00;;;;;;;31.98;8.70;;;0.00;99.90;;;;;;4868416;29;20048;-91
2022/01/10 03:29:26;;;;;;;41.03;9.25;;;-0.10;99.90;;;;;;4883602;29;20048;-91
2022/01/10 03:31:52;;;;;;;40.53;9.32;;;-0.10;99.90;;;;;;4882785;29;20053;-90
2022/01/10 03:34:18;;;;;;;46.28;9.90;;;0.00;99.90;;;;;;4883131;29;20373;-91
2022/01/10 03:36:44;;;;;;;44.30;9.48;;;0.10;99.90;;;;;;4883006;29;20064;-91
2022/01/10 03:39:11;;;;;;;38.28;9.55;;;0.20;99.90;;;;;;4883247;29;20511;-91
2022/01/10 03:41:37;;;;;;;37.65;8.95;;;0.20;99.90;;;;;;4898487;29;20055;-91
2022/01/10 03:44:05;;;;;;;46.30;9.25;;;0.20;99.90;;;;;;4879699;29;20044;-91
2022/01/10 03:46:33;;;;;;;34.53;8.85;;;0.10;99.90;;;;;;4879963;29;20100;-91
2022/01/10 03:49:00;;;;;;;44.28;9.27;;;0.00;99.90;;;;;;4879668;29;20057;-91
2022/01/10 03:51:27;;;;;;;33.88;8.68;;;0.00;99.90;;;;;;4880179;29;20056;-91
2022/01/10 03:53:52;;;;;;;39.55;8.65;;;-0.10;99.90;;;;;;4864043;29;20052;-91
2022/01/10 03:56:19;;;;;;;31.38;9.05;;;-0.10;99.90;;;;;;4880360;29;20442;-92
2022/01/10 03:58:45;;;;;;;37.38;8.57;;;-0.10;99.90;;;;;;4863700;29;20044;-91
2022/01/10 04:01:12;;;;;;;34.38;8.93;;;-0.20;99.90;;;;;;4864836;29;20448;-92
2022/01/10 04:03:39;;;;;;;42.88;9.43;;;-0.20;99.90;;;;;;4880090;29;20074;-91
2022/01/10 04:06:05;;;;;;;44.63;10.32;;;-0.20;99.90;;;;;;4863880;29;20099;-91
2022/01/10 04:08:32;;;;;;;37.38;10.07;;;-0.20;99.90;;;;;;4864486;29;20455;-91
2022/01/10 04:10:58;;;;;;;45.78;10.90;;;-0.20;99.90;;;;;;4896535;29;20099;-92
2022/01/10 04:13:24;;;;;;;46.15;11.07;;;-0.20;99.90;;;;;;4879508;29;20059;-90
2022/01/10 04:15:50;;;;;;;53.50;11.00;;;-0.20;99.90;;;;;;4879495;29;20044;-90
2022/01/10 04:18:16;;;;;;;45.70;12.48;;;-0.20;99.90;;;;;;4879530;29;20052;-90
2022/01/10 04:20:43;;;;;;;47.30;11.07;;;-0.20;99.90;;;;;;4878764;29;20063;-90
2022/01/10 04:23:10;;;;;;;43.15;11.02;;;-0.20;99.90;;;;;;4864320;29;20047;-90
2022/01/10 04:25:36;;;;;;;31.23;10.40;;;-0.20;99.90;;;;;;4879428;29;20052;-89
2022/01/10 04:28:02;;;;;;;40.53;11.05;;;-0.20;99.90;;;;;;4875339;29;20072;-90
2022/01/10 04:30:28;;;;;;;46.95;11.35;;;-0.30;99.90;;;;;;4860406;29;20056;-90
2022/01/10 04:32:53;;;;;;;48.97;11.18;;;-0.30;99.90;;;;;;4860947;29;20048;-90
2022/01/10 04:35:19;;;;;;;40.15;10.82;;;-0.30;99.90;;;;;;4859751;29;20048;-89
2022/01/10 04:37:45;;;;;;;58.63;13.25;;;-0.30;99.90;;;;;;4860630;29;20493;-89
2022/01/10 04:40:11;;;;;;;49.83;12.82;;;-0.30;99.90;;;;;;4860791;29;20045;-89
2022/01/10 04:42:37;;;;;;;42.30;11.63;;;-0.40;99.90;;;;;;4859882;29;20084;-89
2022/01/10 04:45:04;;;;;;;40.20;11.88;;;-0.30;99.90;;;;;;4844807;29;20572;-90
2022/01/10 04:47:29;;;;;;;49.85;14.32;;;-0.30;99.90;;;;;;4860111;29;20052;-90
2022/01/10 04:52:29;;;;;;;51.35;13.55;;;-0.30;99.90;;;;;;4860164;29;20061;-89
2022/01/10 04:54:55;;;;;;;45.42;14.13;;;-0.40;99.90;;;;;;4859439;29;20080;-88
2022/01/10 04:57:21;;;;;;;46.17;14.93;;;-0.40;99.90;;;;;;4859641;29;20149;-89
2022/01/10 04:59:47;;;;;;;38.67;12.63;;;-0.30;99.90;;;;;;4877093;29;20060;-89
2022/01/10 05:02:12;;;;;;;57.10;14.50;;;-0.30;99.90;;;;;;4859553;29;20068;-88
2022/01/10 05:04:38;;;;;;;50.17;14.55;;;-0.40;99.90;;;;;;4859655;29;20387;-89
2022/01/10 05:07:04;;;;;;;43.67;14.77;;;-0.30;99.90;;;;;;4860090;29;20061;-90
2022/01/10 05:09:30;;;;;;;47.58;15.02;;;-0.30;99.90;;;;;;4843794;29;20181;-91
2022/01/10 05:11:56;;;;;;;47.15;14.82;;;-0.30;99.90;;;;;;4860001;29;20053;-90
2022/01/10 05:14:22;;;;;;;44.70;13.85;;;-0.30;99.90;;;;;;4844545;29;20466;-89
2022/01/10 05:16:48;;;;;;;63.80;15.45;;;-0.40;99.90;;;;;;4854283;29;20103;-89
2022/01/10 05:19:14;;;;;;;46.08;14.70;;;-0.40;99.90;;;;;;4878140;29;20060;-89
2022/01/10 05:21:40;;;;;;;49.97;15.00;;;-0.40;99.90;;;;;;4877172;29;20049;-88
2022/01/10 05:24:07;;;;;;;62.67;15.65;;;-0.50;99.90;;;;;;4862382;29;20055;-89
2022/01/10 05:26:34;;;;;;;49.95;16.23;;;-0.50;99.90;;;;;;4878131;29;20049;-87
2022/01/10 05:29:01;;;;;;;57.50;17.80;;;-0.50;99.90;;;;;;4876416;29;20112;-90
2022/01/10 05:31:28;;;;;;;51.47;16.42;;;-0.50;99.90;;;;;;4858107;29;20490;-88
2022/01/10 05:33:54;;;;;;;60.60;18.77;;;-0.50;99.90;;;;;;4845183;29;20040;-88
2022/01/10 05:36:20;;;;;;;58.63;19.23;;;-0.40;99.90;;;;;;4875809;29;20055;-88
2022/01/10 05:38:45;;;;;;;66.72;21.23;;;-0.40;99.90;;;;;;4874593;29;20565;-87
2022/01/10 05:41:11;;;;;;;55.38;19.08;;;-0.30;99.90;;;;;;4877858;29;20057;-88
2022/01/10 05:43:37;;;;;;;57.15;19.15;;;0.40;99.90;;;;;;4877873;29;20403;-88
2022/01/10 05:46:06;;;;;;;65.82;19.73;;;-0.40;99.90;;;;;;4860609;29;20059;-87
2022/01/10 05:48:34;;;;;;;56.78;19.38;;;-0.40;99.90;;;;;;4876853;29;20104;-86
2022/01/10 05:51:00;;;;;;;53.72;20.13;;;-0.50;99.90;;;;;;4860748;29;20079;-88
2022/01/10 05:53:26;;;;;;;56.83;19.90;;;-0.50;99.90;;;;;;4860870;29;20095;-88
2022/01/10 05:55:51;;;;;;;57.53;18.58;;;-0.40;99.90;;;;;;4861005;29;20048;-87
2022/01/10 05:58:18;;;;;;;51.05;19.25;;;-0.50;99.90;;;;;;4875894;29;20263;-86
2022/01/10 06:00:43;;;;;;;72.40;21.17;;;-0.50;99.90;;;;;;4876281;29;20084;-88
2022/01/10 06:03:10;;;;;;;54.00;20.27;;;-0.50;99.90;;;;;;4876573;29;20138;-87
2022/01/10 06:05:36;;;;;;;49.35;19.73;;;-0.60;99.90;;;;;;4859977;29;20088;-86
2022/01/10 06:08:05;;;;;;;59.22;20.23;;;-0.60;99.90;;;;;;4876439;29;20842;-87
2022/01/10 06:10:32;;;;;;;56.63;19.20;;;-0.60;99.90;;;;;;4876320;29;20539;-87
2022/01/10 06:12:58;;;;;;;64.20;21.40;;;-0.60;99.90;;;;;;4875989;29;20428;-88
2022/01/10 06:15:24;;;;;;;57.05;20.38;;;-0.60;99.90;;;;;;4876400;29;20382;-87
2022/01/10 06:17:50;;;;;;;44.80;18.92;;;-0.70;99.90;;;;;;4877146;29;20089;-88
2022/01/10 06:20:16;;;;;;;45.40;17.50;;;-0.70;99.90;;;;;;4859851;29;20052;-86
2022/01/10 06:22:43;;;;;;;65.00;20.83;;;-0.20;99.90;;;;;;4876491;29;20139;-88
2022/01/10 06:25:11;;;;;;;59.70;22.00;;;-0.90;99.90;;;;;;4877379;29;20044;-88
2022/01/10 06:27:37;;;;;;;87.05;22.52;;;-0.90;99.90;;;;;;4860877;29;20049;-88
2022/01/10 06:30:04;;;;;;;77.22;25.30;;;-0.90;99.90;;;;;;4876685;29;20108;-88
2022/01/10 06:32:30;;;;;;;76.35;21.98;;;-0.90;99.90;;;;;;4876794;29;20045;-89
2022/01/10 06:34:57;;;;;;;83.22;25.35;;;-0.90;99.90;;;;;;4876862;29;20056;-89
2022/01/10 06:37:23;;;;;;;74.57;24.95;;;-0.90;99.90;;;;;;4861649;29;20401;-89
2022/01/10 06:39:49;;;;;;;62.40;23.20;;;-0.90;99.90;;;;;;4861531;29;20094;-90
2022/01/10 06:42:15;;;;;;;66.68;24.70;;;-0.90;99.90;;;;;;4861646;29;20097;-91
2022/01/10 06:44:41;;;;;;;82.05;26.08;;;-0.80;99.90;;;;;;4877610;29;20053;-91
2022/01/10 06:47:07;;;;;;;68.80;25.20;;;-0.90;99.90;;;;;;4862042;29;20041;-89
2022/01/10 06:49:33;;;;;;;77.32;26.85;;;-0.90;99.90;;;;;;4875964;29;20051;-89
2022/01/10 06:51:59;;;;;;;68.55;25.85;;;-0.80;99.90;;;;;;4861422;29;20049;-89
2022/01/10 06:54:25;;;;;;;85.70;27.15;;;0.00;99.90;;;;;;4860783;29;20049;-89
2022/01/10 06:56:51;;;;;;;81.28;26.75;;;-0.80;99.90;;;;;;4861327;29;20053;-89
2022/01/10 06:59:17;;;;;;;72.93;26.20;;;-0.20;99.90;;;;;;4877579;29;20061;-90
2022/01/10 07:01:44;;;;;;;79.13;26.30;;;-0.90;99.90;;;;;;4861091;29;20051;-90
2022/01/10 07:04:10;;;;;;;77.22;25.35;;;-0.90;99.90;;;;;;4862128;29;20143;-89
2022/01/10 07:06:36;;;;;;;59.47;23.80;;;-0.90;99.90;;;;;;4861510;29;20131;-90
2022/01/10 07:09:01;;;;;;;62.17;25.73;;;-1.00;99.90;;;;;;4876954;29;20056;-91
2022/01/10 07:11:27;;;;;;;60.63;22.13;;;-1.00;99.90;;;;;;4861578;29;20060;-90
2022/01/10 07:13:53;;;;;;;60.90;22.63;;;-1.10;99.90;;;;;;4877529;29;20049;-91
2022/01/10 07:16:19;;;;;;;70.72;25.23;;;-1.20;99.90;;;;;;4876918;29;20063;-91
2022/01/10 07:18:45;;;;;;;112.35;29.73;;;-1.20;99.90;;;;;;4879138;29;20076;-91
2022/01/10 07:21:11;;;;;;;84.30;31.17;;;-1.30;99.90;;;;;;4865604;29;20040;-92
2022/01/10 07:23:36;;;;;;;100.05;30.55;;;-1.30;99.90;;;;;;4864027;29;20044;-88
2022/01/10 07:26:02;;;;;;;71.22;26.95;;;-1.20;99.90;;;;;;4879600;29;20058;-89
2022/01/10 07:28:28;;;;;;;74.22;27.40;;;-1.20;99.90;;;;;;4864289;29;20092;-87
2022/01/10 07:30:54;;;;;;;72.20;28.00;;;-1.20;99.90;;;;;;4878433;29;20048;-88
2022/01/10 07:33:20;;;;;;;80.80;28.27;;;-1.20;99.90;;;;;;4879755;29;20047;-87
2022/01/10 07:35:45;;;;;;;80.60;28.40;;;-1.20;99.90;;;;;;4878763;29;20048;-81
2022/01/10 07:38:11;;;;;;;113.53;31.95;;;-1.20;99.90;;;;;;4879929;29;20055;-91
2022/01/10 07:40:37;;;;;;;78.95;29.77;;;-0.90;99.90;;;;;;4879659;29;20515;-88
2022/01/10 07:43:02;;;;;;;75.55;29.23;;;-1.20;99.90;;;;;;4878691;29;20135;-87
2022/01/10 07:45:28;;;;;;;94.97;32.03;;;-1.10;99.90;;;;;;4878024;29;20036;-87
2022/01/10 07:47:54;;;;;;;90.53;29.63;;;-1.10;99.90;;;;;;4878649;29;20473;-88
2022/01/10 07:50:20;;;;;;;129.00;34.65;;;-1.20;99.90;;;;;;4875331;29;20472;-87
2022/01/10 07:52:46;;;;;;;93.03;30.52;;;-1.20;99.90;;;;;;4875265;29;20080;-88
2022/01/10 07:55:12;;;;;;;86.90;29.77;;;-1.20;99.90;;;;;;4876381;29;20045;-88
2022/01/10 07:57:37;;;;;;;84.68;28.42;;;-1.20;99.90;;;;;;4865460;29;20079;-88
2022/01/10 08:00:05;;;;;;;75.28;27.80;;;-1.20;99.90;;;;;;4860272;29;20049;-88
2022/01/10 08:02:31;;;;;;;78.53;31.17;;;-1.20;99.90;;;;;;4860259;29;20037;-88
2022/01/10 08:04:57;;;;;;;90.90;31.98;;;-1.20;99.90;;;;;;4859438;29;20057;-88
2022/01/10 08:07:23;;;;;;;98.22;33.20;;;-1.10;99.90;;;;;;4851911;29;20037;-88
2022/01/10 08:09:49;;;;;;;86.82;32.17;;;-1.10;99.90;;;;;;4866777;29;20192;-89
2022/01/10 08:12:14;;;;;;;102.40;32.42;;;-1.10;99.90;;;;;;4845136;29;20401;-89
2022/01/10 08:14:41;;;;;;;96.38;32.40;;;-1.10;99.90;;;;;;4860980;29;20068;-88
2022/01/10 08:17:07;;;;;;;83.45;30.55;;;-1.00;99.90;;;;;;4844964;29;20052;-88
2022/01/10 08:19:34;;;;;;;103.53;33.70;;;-1.00;99.90;;;;;;4833613;29;20061;-92
2022/01/10 08:22:01;;;;;;;92.22;34.63;;;-1.00;99.90;;;;;;4843155;29;20276;-93
2022/01/10 08:24:27;;;;;;;95.72;32.15;;;-1.00;99.90;;;;;;4841841;29;20141;-88
2022/01/10 08:26:54;;;;;;;93.00;33.28;;;-0.90;99.90;;;;;;4858799;29;20512;-89
2022/01/10 08:29:19;;;;;;;67.63;30.77;;;-1.00;99.90;;;;;;4841959;29;20081;-90
2022/01/10 08:31:45;;;;;;;103.45;32.53;;;-1.00;99.90;;;;;;4841775;29;20150;-88
2022/01/10 08:34:11;;;;;;;67.35;27.50;;;-1.00;99.90;;;;;;4841591;29;20064;-93
2022/01/10 08:36:37;;;;;;;94.50;29.05;;;-1.00;99.90;;;;;;4842714;29;20052;-90
2022/01/10 08:39:05;;;;;;;112.68;36.88;;;0.00;99.90;;;;;;4841220;29;20052;-90
2022/01/10 08:41:31;;;;;;;118.22;37.97;;;-1.00;99.90;;;;;;4841428;29;20476;-91
2022/01/10 08:43:57;;;;;;;101.20;39.63;;;-0.90;99.90;;;;;;4842579;29;20162;-92
2022/01/10 08:46:23;;;;;;;129.85;45.80;;;-0.80;99.90;;;;;;4842466;29;20041;-91
2022/01/10 08:48:51;;;;;;;119.78;38.55;;;-0.70;99.90;;;;;;4825481;29;20045;-89
2022/01/10 08:51:17;;;;;;;83.45;33.20;;;-0.60;99.90;;;;;;4835238;29;20049;-90
2022/01/10 08:53:43;;;;;;;119.38;37.67;;;0.20;99.90;;;;;;4855199;29;20074;-91
2022/01/10 08:56:09;;;;;;;94.38;32.78;;;-0.60;99.90;;;;;;4841382;29;20057;-90
2022/01/10 08:58:34;;;;;;;74.75;31.63;;;-0.60;99.90;;;;;;4843711;29;20144;-91
2022/01/10 09:01:03;;;;;;;102.40;34.60;;;-0.50;99.90;;;;;;4852693;29;20041;-91
2022/01/10 09:03:28;;;;;;;122.90;36.95;;;-0.50;99.90;;;;;;4858281;29;20101;-94
2022/01/10 09:05:55;;;;;;;104.40;34.13;;;-0.50;99.90;;;;;;4844437;29;20052;-93
2022/01/10 09:08:23;;;;;;;108.60;39.85;;;-0.40;99.90;;;;;;4842537;29;20136;-94
2022/01/10 09:10:49;;;;;;;106.40;39.83;;;-0.40;99.90;;;;;;4860870;29;20053;-96
2022/01/10 09:13:14;;;;;;;120.07;41.15;;;-0.40;99.90;;;;;;4866547;29;20060;-96
2022/01/10 09:15:40;;;;;;;102.57;38.90;;;-0.40;99.90;;;;;;4865858;29;20053;-96
2022/01/10 09:18:06;;;;;;;97.65;37.83;;;-0.30;99.90;;;;;;4840088;29;20117;-96
2022/01/10 09:20:32;;;;;;;110.72;40.72;;;-0.30;99.90;;;;;;4857855;29;20061;-95
2022/01/10 09:22:58;;;;;;;117.72;42.15;;;-0.20;99.90;;;;;;4858004;29;20061;-95
2022/01/10 09:25:27;;;;;;;114.45;42.45;;;-0.20;99.90;;;;;;4874129;29;20044;-93
2022/01/10 09:27:53;;;;;;;115.13;41.78;;;0.70;99.90;;;;;;4857908;29;20045;-93
2022/01/10 09:30:19;;;;;;;112.97;41.78;;;-0.10;99.90;;;;;;4856966;29;20390;-93
2022/01/10 09:32:45;;;;;;;124.60;45.42;;;0.00;99.90;;;;;;4858415;29;20052;-94
2022/01/10 09:35:11;;;;;;;106.60;42.50;;;0.10;99.90;;;;;;4857694;29;20095;-94
2022/01/10 09:37:37;;;;;;;124.47;44.17;;;0.20;99.90;;;;;;4857696;29;20117;-94
2022/01/10 09:40:03;;;;;;;115.82;43.15;;;0.30;99.90;;;;;;4857456;29;20052;-92
2022/01/10 09:42:30;;;;;;;103.65;39.47;;;0.30;99.90;;;;;;4856608;29;20049;-89
2022/01/10 09:44:55;;;;;;;123.97;43.67;;;1.00;99.90;;;;;;4877793;29;20049;-92
2022/01/10 09:47:21;;;;;;;95.18;40.42;;;0.40;99.90;;;;;;4860911;29;20104;-87
2022/01/10 09:49:47;;;;;;;112.50;45.15;;;0.40;99.90;;;;;;4846024;29;20125;-91
2022/01/10 09:52:15;;;;;;;99.28;40.30;;;0.50;99.90;;;;;;4843733;29;20125;-90
2022/01/10 09:54:40;;;;;;;92.68;39.67;;;0.50;99.90;;;;;;4859484;29;20053;-89
2022/01/10 09:57:06;;;;;;;113.35;40.80;;;0.60;99.90;;;;;;4859921;29;20472;-90
2022/01/10 09:59:32;;;;;;;100.50;40.20;;;1.50;99.90;;;;;;4858901;29;20493;-90
2022/01/10 10:01:58;;;;;;;99.68;40.45;;;0.70;99.90;;;;;;4859500;29;20099;-91
2022/01/10 10:04:23;;;;;;;98.00;42.10;;;0.80;99.90;;;;;;4859773;29;20409;-90
2022/01/10 10:06:50;;;;;;;100.70;41.78;;;0.80;99.90;;;;;;4861312;29;20045;-91
2022/01/10 10:09:17;;;;;;;103.63;43.72;;;0.90;99.90;;;;;;4843836;29;20041;-91
2022/01/10 10:11:50;;;;;;;127.53;44.35;;;1.00;99.90;;;;;;4843974;29;20060;-92
2022/01/10 10:14:20;;;;;;;91.65;39.70;;;1.00;99.90;;;;;;4858918;29;20049;-92
2022/01/10 10:16:50;;;;;;;103.47;43.72;;;1.10;99.90;;;;;;4859211;29;20064;-90
2022/01/10 10:19:17;;;;;;;100.00;41.30;;;1.70;99.90;;;;;;4859717;29;20136;-91
2022/01/10 10:21:43;;;;;;;93.15;42.67;;;1.20;99.90;;;;;;4859119;29;20053;-90
2022/01/10 10:24:09;;;;;;;92.90;40.97;;;1.30;99.90;;;;;;4858668;29;20045;-90
2022/01/10 10:26:35;;;;;;;93.40;43.25;;;1.30;99.90;;;;;;4858808;29;20052;-90
2022/01/10 10:29:01;;;;;;;104.55;44.25;;;1.40;99.90;;;;;;4859599;29;20513;-91
2022/01/10 10:31:34;;;;;;;97.80;43.33;;;1.40;99.90;;;;;;4843970;29;20076;-88
2022/01/10 10:34:04;;;;;;;98.35;42.33;;;1.50;99.90;;;;;;4857542;29;20052;-87
2022/01/10 10:36:35;;;;;;;102.95;43.70;;;1.50;99.90;;;;;;4845163;29;20045;-91
2022/01/10 10:39:06;;;;;;;93.72;41.90;;;1.70;99.90;;;;;;4852978;29;20605;-92
2022/01/10 10:41:34;;;;;;;94.38;43.88;;;1.70;99.90;;;;;;4872168;29;20065;-92
2022/01/10 10:44:00;;;;;;;95.57;43.08;;;1.70;99.90;;;;;;4858379;29;20053;-91
2022/01/10 10:46:27;;;;;;;76.25;39.45;;;1.80;99.90;;;;;;4856897;29;20045;-92
2022/01/10 10:48:58;;;;;;;90.25;41.67;;;1.80;99.90;;;;;;4856465;29;20053;-91
2022/01/10 10:51:29;;;;;;;83.45;38.33;;;1.90;99.90;;;;;;4857514;29;20132;-91
2022/01/10 10:54:03;;;;;;;78.40;38.22;;;1.90;99.90;;;;;;4859863;29;20481;-91
2022/01/10 10:56:36;;;;;;;88.82;39.17;;;2.00;99.90;;;;;;4860149;29;20053;-91
2022/01/10 10:59:04;;;;;;;74.28;38.40;;;2.10;99.90;;;;;;4860526;29;20057;-90
2022/01/10 11:01:30;;;;;;;85.20;38.10;;;2.70;99.90;;;;;;4861094;29;20068;-90
2022/01/10 11:03:59;;;;;;;84.05;37.22;;;2.20;99.90;;;;;;4859852;29;20524;-90
2022/01/10 11:06:26;;;;;;;73.28;36.85;;;2.20;99.90;;;;;;4860087;29;20048;-91
2022/01/10 11:08:52;;;;;;;77.85;38.15;;;3.20;99.90;;;;;;4861034;29;20501;-89
2022/01/10 11:11:21;;;;;;;77.07;37.65;;;2.30;99.90;;;;;;4860065;29;20104;-90
2022/01/10 11:13:48;;;;;;;84.15;38.97;;;3.50;99.90;;;;;;4860744;29;20053;-91
2022/01/10 11:16:14;;;;;;;82.10;37.35;;;2.30;99.90;;;;;;4861488;29;20045;-90
2022/01/10 11:18:40;;;;;;;82.35;35.63;;;2.50;99.90;;;;;;4862518;29;20163;-91
2022/01/10 11:21:07;;;;;;;78.72;37.70;;;2.50;99.90;;;;;;4863164;29;20052;-90
2022/01/10 11:23:39;;;;;;;79.38;35.63;;;2.50;99.90;;;;;;4862390;29;20062;-89
2022/01/10 11:26:07;;;;;;;71.93;36.85;;;2.50;99.90;;;;;;4878867;29;20060;-90
2022/01/10 11:28:33;;;;;;;70.63;36.63;;;2.60;99.90;;;;;;4862782;29;20138;-91
2022/01/10 11:31:02;;;;;;;67.25;34.28;;;2.50;99.90;;;;;;4877795;29;20207;-91
2022/01/10 11:33:32;;;;;;;68.60;37.80;;;2.70;99.90;;;;;;4862473;29;20045;-91
2022/01/10 11:36:02;;;;;;;69.22;34.97;;;2.70;99.90;;;;;;4875817;29;20055;-92
2022/01/10 11:38:34;;;;;;;64.25;36.40;;;2.70;99.90;;;;;;4861972;29;20049;-89
2022/01/10 11:41:06;;;;;;;68.88;38.00;;;2.80;99.90;;;;;;4878198;29;20785;-90
2022/01/10 11:43:34;;;;;;;79.15;37.90;;;2.90;99.90;;;;;;4877177;29;20078;-90
2022/01/10 11:46:10;;;;;;;68.97;35.53;;;3.60;99.90;;;;;;4877670;29;20064;-90
2022/01/10 11:48:46;;;;;;;79.97;35.95;;;3.00;99.90;;;;;;4877425;29;20044;-88
2022/01/10 11:51:14;;;;;;;73.93;35.75;;;2.80;99.90;;;;;;4877494;29;20139;-91
2022/01/10 11:53:45;;;;;;;68.03;32.90;;;3.10;99.90;;;;;;4862389;29;20045;-91
2022/01/10 11:56:27;;;;;;;61.55;31.73;;;3.20;99.90;;;;;;4878650;29;20055;-91
2022/01/10 11:59:13;;;;;;;53.63;31.60;;;3.20;99.90;;;;;;4877558;29;20884;-91
2022/01/10 12:01:42;;;;;;;61.35;31.17;;;3.30;99.90;;;;;;4862577;29;20184;-93
2022/01/10 12:04:08;;;;;;;67.65;31.25;;;3.50;99.90;;;;;;4876376;29;20045;-91
2022/01/10 12:06:35;;;;;;;63.00;30.80;;;3.30;99.90;;;;;;4862269;29;20059;-92
2022/01/10 12:09:01;;;;;;;65.88;32.42;;;3.40;99.90;;;;;;4862715;29;20037;-91
2022/01/10 12:11:28;;;;;;;63.10;29.58;;;3.40;99.90;;;;;;4863326;29;20523;-92
2022/01/10 12:13:55;;;;;;;65.88;28.80;;;3.50;99.90;;;;;;4862123;29;20083;-92
2022/01/10 12:16:22;;;;;;;57.88;27.08;;;3.50;99.90;;;;;;4861873;29;20095;-93
2022/01/10 12:18:48;;;;;;;56.53;26.98;;;3.60;99.90;;;;;;4861430;29;20064;-92
2022/01/10 12:21:17;;;;;;;60.28;28.48;;;3.60;99.90;;;;;;4879266;29;20060;-93
2022/01/10 12:23:44;;;;;;;51.70;25.70;;;3.70;99.90;;;;;;4877688;29;20099;-91
2022/01/10 12:26:10;;;;;;;54.45;27.20;;;3.70;99.90;;;;;;4878574;29;20053;-91
2022/01/10 12:28:37;;;;;;;52.75;27.95;;;3.80;99.90;;;;;;4877738;29;20044;-92
2022/01/10 12:31:04;;;;;;;46.72;26.77;;;3.90;99.90;;;;;;4861993;29;20058;-91
2022/01/10 12:33:30;;;;;;;48.30;26.80;;;3.90;99.90;;;;;;4861129;29;20056;-92
2022/01/10 12:35:56;;;;;;;54.35;26.58;;;4.00;99.90;;;;;;4875464;29;20048;-93